Главная страница
METAR-TAF:

METAR-TAF

Аэропорты :

Colville Lake, Северо-Западные Территории, Канада

широта: 67-01-16N, долгота: 126-07-43W, высота над уровнем моря: 274 м

Текущие метеонаблюдения

Эта сводка был подготовлена 24 минут назад, в 04:05 UTC
Ветер 4 Узел от южный
Температура -12°C
Влажность 92%
Давление 999 hPa
Видимость: 9.7 км
Сплошная облачность на высоте 5500 фута
небольшой снег

METAR: CYVL 230405Z AUTO 18004KT 6SM -SN OVC055 M12/M13 A2949 RMK SLP015

Время: 21:29 (04:29 UTC)


TAF: отсутствует

Метеонаблюдения и прогнозы для более 4000 аэропортов (сводки METAR и TAF).

Имеющиеся станции представлены на карте желтыми и красными точками.

Чтобы увидеть название станции, наведите на нее мышь.

Затем щелкните, чтобы увидеть метеонаблюдения и метеопрогнозы.

Управление картой: чтобы увеличить масштаб, щелкните зеленые кнопки с черным крестиком; чтобы уменьшить масштаб, щелкните зеленую кнопку с тире; для просмотра соседних карт щелкайте зеленые стрелки.


METAR-TAF: